createdAt,value
2022-08-02T00:01:35.086Z,12.95
2022-08-02T00:04:05.859Z,11.55
2022-08-02T00:06:33.183Z,11.25
2022-08-02T00:09:00.006Z,11.75
2022-08-02T00:11:26.791Z,15.00
2022-08-02T00:13:53.548Z,12.25
2022-08-02T00:16:20.593Z,12.73
2022-08-02T00:19:04.945Z,12.30
2022-08-02T00:21:31.921Z,14.02
2022-08-02T00:24:27.923Z,13.38
2022-08-02T00:26:45.653Z,15.32
2022-08-02T00:29:12.449Z,15.20
2022-08-02T00:31:39.320Z,14.30
2022-08-02T00:34:29.207Z,14.27
2022-08-02T00:36:52.881Z,14.30
2022-08-02T00:39:33.609Z,15.75
2022-08-02T00:44:29.238Z,15.25
2022-08-02T00:46:56.148Z,16.27
2022-08-02T00:49:23.134Z,16.83
2022-08-02T00:51:51.298Z,18.95
2022-08-02T00:54:19.782Z,17.90
2022-08-02T00:56:50.852Z,18.02
2022-08-02T00:59:18.372Z,18.67
2022-08-02T01:01:57.195Z,16.63
2022-08-02T01:04:30.032Z,18.25
2022-08-02T01:06:57.826Z,17.80
2022-08-02T01:09:24.533Z,16.17
2022-08-02T01:11:51.347Z,16.33
2022-08-02T01:14:19.325Z,17.75
2022-08-02T01:16:52.706Z,19.33
2022-08-02T01:19:28.595Z,18.90
2022-08-02T01:22:18.418Z,15.38
2022-08-02T01:25:06.450Z,17.13
2022-08-02T01:27:43.231Z,15.63
2022-08-02T01:30:11.556Z,14.73
2022-08-02T01:32:44.875Z,15.00
2022-08-02T01:35:27.258Z,15.30
2022-08-02T01:37:59.010Z,15.85
2022-08-02T01:40:33.498Z,18.25
2022-08-02T01:43:01.187Z,15.65
2022-08-02T01:45:33.102Z,16.77
2022-08-02T01:48:01.634Z,13.43
2022-08-02T01:50:33.550Z,15.20
2022-08-02T01:53:05.704Z,17.55
2022-08-02T01:55:57.601Z,15.13
2022-08-02T02:00:57.613Z,13.02
2022-08-02T02:03:26.068Z,17.67
2022-08-02T02:05:56.938Z,15.40
2022-08-02T02:08:38.135Z,16.02
2022-08-02T02:12:06.462Z,18.95
2022-08-02T02:13:53.347Z,14.93
2022-08-02T02:16:22.511Z,15.25
2022-08-02T02:18:51.646Z,16.70
2022-08-02T02:21:18.982Z,16.52
2022-08-02T02:23:45.740Z,15.73
2022-08-02T02:26:16.847Z,14.50
2022-08-02T02:31:26.697Z,16.73
2022-08-02T02:34:01.243Z,15.48
2022-08-02T02:36:29.702Z,15.18
2022-08-02T02:39:00.858Z,17.15
2022-08-02T02:41:29.166Z,14.85
2022-08-02T02:43:58.441Z,18.50
2022-08-02T02:46:27.083Z,16.38
2022-08-02T02:48:55.120Z,16.17
2022-08-02T02:51:23.221Z,13.90
2022-08-02T02:54:30.196Z,14.20
2022-08-02T02:56:41.063Z,15.63
2022-08-02T02:59:09.191Z,15.20
2022-08-02T03:01:56.685Z,14.20
2022-08-02T03:04:25.097Z,15.40
2022-08-02T03:06:52.051Z,17.13
2022-08-02T03:09:18.985Z,14.18
2022-08-02T03:11:46.696Z,16.85
2022-08-02T03:14:13.882Z,13.60
2022-08-02T03:16:49.245Z,16.00
2022-08-02T03:19:16.625Z,12.63
2022-08-02T03:21:44.103Z,14.73
2022-08-02T03:24:11.490Z,12.82
2022-08-02T03:26:38.762Z,13.73
2022-08-02T03:29:09.784Z,11.07
2022-08-02T03:31:40.573Z,11.55
2022-08-02T03:34:07.828Z,10.55
2022-08-02T03:36:36.195Z,13.00
2022-08-02T03:39:04.399Z,11.90
2022-08-02T03:41:32.078Z,12.75
2022-08-02T03:43:59.913Z,10.32
2022-08-02T03:46:27.345Z,11.05
2022-08-02T03:48:55.997Z,12.23
2022-08-02T03:51:23.473Z,12.43
2022-08-02T03:53:50.736Z,10.18
2022-08-02T03:56:17.577Z,10.85
2022-08-02T03:58:49.018Z,9.73
2022-08-02T04:01:16.577Z,10.23
2022-08-02T04:03:43.597Z,12.68
2022-08-02T04:06:10.465Z,8.80
2022-08-02T04:08:38.755Z,8.95
2022-08-02T04:11:25.572Z,9.30
2022-08-02T04:13:54.131Z,8.90
2022-08-02T04:16:43.412Z,10.82
2022-08-02T04:19:15.490Z,9.20
2022-08-02T04:21:51.293Z,8.63
2022-08-02T04:24:32.391Z,10.10
2022-08-02T04:27:06.740Z,8.75
2022-08-02T04:29:49.026Z,8.05
2022-08-02T04:32:17.368Z,12.50
2022-08-02T04:35:11.348Z,8.88
2022-08-02T04:37:33.639Z,8.15
2022-08-02T04:40:01.073Z,9.70
2022-08-02T04:42:27.913Z,9.18
2022-08-02T04:44:54.788Z,9.43
2022-08-02T04:47:40.017Z,10.70
2022-08-02T04:50:09.545Z,8.70
2022-08-02T04:52:36.405Z,9.80
2022-08-02T04:55:03.617Z,11.30
2022-08-02T04:57:52.599Z,17.92
2022-08-02T05:00:20.543Z,28.50
2022-08-02T05:02:48.339Z,32.72
2022-08-02T05:05:15.771Z,32.30
2022-08-02T05:07:42.569Z,14.02
2022-08-02T05:10:09.727Z,15.73
2022-08-02T05:12:38.690Z,9.98
2022-08-02T05:15:06.114Z,11.40
2022-08-02T05:17:32.859Z,15.02
2022-08-02T05:19:59.739Z,13.10
2022-08-02T05:22:26.592Z,16.15
2022-08-02T05:24:53.607Z,9.68
2022-08-02T05:27:21.555Z,12.55
2022-08-02T05:29:53.943Z,13.13
2022-08-02T05:32:25.871Z,14.93
2022-08-02T05:34:53.404Z,12.35
2022-08-02T05:37:20.203Z,14.88
2022-08-02T05:39:55.850Z,11.82
2022-08-02T05:42:23.866Z,14.18
2022-08-02T05:44:50.833Z,14.07
2022-08-02T05:47:17.628Z,13.05
2022-08-02T05:49:44.363Z,13.63
2022-08-02T05:52:17.232Z,12.85
2022-08-02T05:55:02.209Z,13.50
2022-08-02T05:57:44.156Z,17.00
2022-08-02T06:00:16.194Z,13.87
2022-08-02T06:02:42.978Z,12.55
2022-08-02T06:05:13.649Z,14.65
2022-08-02T06:07:45.430Z,19.17
2022-08-02T06:10:14.370Z,13.25
2022-08-02T06:12:56.418Z,15.98
2022-08-02T06:15:23.284Z,16.10
2022-08-02T06:17:50.732Z,13.95
2022-08-02T06:20:18.467Z,15.70
2022-08-02T06:22:46.940Z,18.05
2022-08-02T06:25:49.862Z,17.48
2022-08-02T06:28:03.727Z,20.92
2022-08-02T06:30:39.069Z,25.23
2022-08-02T06:33:05.796Z,33.72
2022-08-02T06:35:45.053Z,34.70
2022-08-02T06:38:19.749Z,35.92
2022-08-02T06:40:55.818Z,45.38
2022-08-02T06:43:47.507Z,43.13
2022-08-02T06:46:57.043Z,44.85
2022-08-02T06:49:02.140Z,39.55
2022-08-02T06:51:29.970Z,40.13
2022-08-02T06:53:56.796Z,41.28
2022-08-02T06:56:23.646Z,47.20
2022-08-02T06:58:50.805Z,47.47
2022-08-02T07:01:20.099Z,54.97
2022-08-02T07:03:46.949Z,65.07
2022-08-02T07:06:13.906Z,66.20
2022-08-02T07:08:40.882Z,72.68
2022-08-02T07:11:09.466Z,74.93
2022-08-02T07:13:39.796Z,70.82
2022-08-02T07:16:07.485Z,70.13
2022-08-02T07:18:34.728Z,66.95
2022-08-02T07:21:05.377Z,68.57
2022-08-02T07:23:35.554Z,73.35
2022-08-02T07:26:05.357Z,69.15
2022-08-02T07:28:32.910Z,72.25
2022-08-02T07:30:59.683Z,69.90
2022-08-02T07:33:38.220Z,72.28
2022-08-02T07:36:08.839Z,68.70
2022-08-02T07:38:36.801Z,64.00
2022-08-02T07:41:04.682Z,67.05
2022-08-02T07:43:31.603Z,63.70
2022-08-02T07:46:01.072Z,64.75
2022-08-02T07:48:28.145Z,59.88
2022-08-02T07:50:54.955Z,60.33
2022-08-02T07:53:49.780Z,55.75
2022-08-02T07:56:09.542Z,59.22
2022-08-02T07:58:36.434Z,56.72
2022-08-02T08:01:04.680Z,51.80
2022-08-02T08:03:31.547Z,55.25
2022-08-02T08:05:58.478Z,57.33
2022-08-02T08:08:25.242Z,46.97
2022-08-02T08:10:52.012Z,45.95
2022-08-02T08:13:18.991Z,45.78
2022-08-02T08:15:51.572Z,40.25
2022-08-02T08:18:20.596Z,38.58
2022-08-02T08:20:47.511Z,39.83
2022-08-02T08:23:14.437Z,44.92
2022-08-02T08:25:41.515Z,38.13
2022-08-02T08:28:09.359Z,36.15
2022-08-02T08:30:36.600Z,38.53
2022-08-02T08:33:04.533Z,35.22
2022-08-02T08:35:31.387Z,36.67
2022-08-02T08:37:58.170Z,33.42
2022-08-02T08:40:26.133Z,32.58
2022-08-02T08:42:53.154Z,34.35
2022-08-02T08:45:19.906Z,33.95
2022-08-02T08:47:52.910Z,29.10
2022-08-02T08:50:25.147Z,31.30
2022-08-02T08:53:04.017Z,30.02
2022-08-02T08:55:32.532Z,25.67
2022-08-02T08:58:01.343Z,28.15
2022-08-02T09:00:30.466Z,30.08
2022-08-02T09:02:57.978Z,27.58
2022-08-02T09:05:25.544Z,27.90
2022-08-02T09:07:53.317Z,25.83
2022-08-02T09:10:32.280Z,24.55
2022-08-02T09:13:39.098Z,23.60
2022-08-02T09:16:12.811Z,24.20
2022-08-02T09:18:45.607Z,24.70
2022-08-02T09:21:13.769Z,22.48
2022-08-02T09:23:51.749Z,21.42
2022-08-02T09:26:19.815Z,23.85
2022-08-02T09:28:50.313Z,23.38
2022-08-02T09:31:24.570Z,22.02
2022-08-02T09:33:59.257Z,19.67
2022-08-02T09:36:28.288Z,21.88
2022-08-02T09:39:06.615Z,21.67
2022-08-02T09:41:41.291Z,22.10
2022-08-02T09:44:16.113Z,23.48
2022-08-02T09:46:45.072Z,25.35
2022-08-02T09:49:14.849Z,22.67
2022-08-02T09:51:50.488Z,22.70
2022-08-02T09:54:29.120Z,23.77
2022-08-02T09:56:58.461Z,21.75
2022-08-02T09:59:27.611Z,25.17
2022-08-02T10:02:01.758Z,24.55
2022-08-02T10:04:32.095Z,24.95
2022-08-02T10:07:04.597Z,23.33
2022-08-02T10:09:32.261Z,27.00
2022-08-02T10:12:00.036Z,23.90
2022-08-02T10:14:27.915Z,23.60
2022-08-02T10:16:57.385Z,24.42
2022-08-02T10:20:00.870Z,25.10
2022-08-02T10:22:14.163Z,26.55
2022-08-02T10:24:47.498Z,24.65
2022-08-02T10:27:20.575Z,24.80
2022-08-02T10:29:53.630Z,24.23
2022-08-02T10:32:37.802Z,23.42
2022-08-02T10:35:18.723Z,26.70
2022-08-02T10:37:58.113Z,28.67
2022-08-02T10:40:26.905Z,22.05
2022-08-02T10:43:00.865Z,26.30
2022-08-02T10:45:29.283Z,24.48
2022-08-02T10:48:00.563Z,25.15
2022-08-02T10:50:46.735Z,24.70
2022-08-02T10:53:30.452Z,25.83
2022-08-02T10:56:06.048Z,28.17
2022-08-02T10:58:36.273Z,26.65
2022-08-02T11:01:39.605Z,25.45
2022-08-02T11:04:10.646Z,26.27
2022-08-02T11:07:10.860Z,25.20
2022-08-02T11:09:38.299Z,24.95
2022-08-02T11:12:19.669Z,29.08
2022-08-02T11:15:01.229Z,24.42
2022-08-02T11:17:38.245Z,25.48
2022-08-02T11:20:11.017Z,23.48
2022-08-02T11:22:39.159Z,26.35
2022-08-02T11:25:24.377Z,21.77
2022-08-02T11:27:51.803Z,22.10
2022-08-02T11:30:26.499Z,22.95
2022-08-02T11:33:00.816Z,26.25
2022-08-02T11:35:36.115Z,25.10
2022-08-02T11:38:16.444Z,22.17
2022-08-02T11:40:45.230Z,26.42
2022-08-02T11:43:23.493Z,25.15
2022-08-02T11:45:52.566Z,26.80
2022-08-02T11:48:33.675Z,27.02
2022-08-02T11:51:04.823Z,24.85
2022-08-02T11:53:41.577Z,24.35
2022-08-02T11:56:08.602Z,25.98
2022-08-02T11:58:35.406Z,27.58
2022-08-02T12:01:02.576Z,22.65
2022-08-02T12:03:37.744Z,23.10
2022-08-02T12:06:10.848Z,23.70
2022-08-02T12:08:43.744Z,25.23
2022-08-02T12:11:21.599Z,27.02
2022-08-02T12:13:56.781Z,28.27
2022-08-02T12:16:43.737Z,25.67
2022-08-02T12:19:19.550Z,24.13
2022-08-02T12:21:47.118Z,27.83
2022-08-02T12:24:26.890Z,23.40
2022-08-02T12:26:53.673Z,19.55
2022-08-02T12:29:57.904Z,16.73
2022-08-02T12:32:24.967Z,18.17
2022-08-02T12:35:02.926Z,15.13
2022-08-02T12:37:29.762Z,14.30
2022-08-02T12:39:56.516Z,9.30
2022-08-02T12:42:23.421Z,10.88
2022-08-02T12:45:00.468Z,8.45
2022-08-02T12:47:35.879Z,11.20
2022-08-02T12:50:21.458Z,10.25
2022-08-02T12:52:49.792Z,9.20
2022-08-02T12:55:16.733Z,10.32
2022-08-02T12:58:02.962Z,8.13
2022-08-02T13:00:35.734Z,9.18
2022-08-02T13:03:03.867Z,12.65
2022-08-02T13:05:53.659Z,8.13
2022-08-02T13:08:22.601Z,12.23
2022-08-02T13:10:49.601Z,9.57
2022-08-02T13:13:16.472Z,9.13
2022-08-02T13:15:48.990Z,10.35
2022-08-02T13:18:18.474Z,4.95
2022-08-02T13:20:45.632Z,4.72
2022-08-02T13:23:21.011Z,4.65
2022-08-02T13:25:48.342Z,3.90
2022-08-02T13:28:19.886Z,3.85
2022-08-02T13:30:47.236Z,6.25
2022-08-02T13:33:14.613Z,4.18
2022-08-02T13:35:42.456Z,3.90
2022-08-02T13:38:09.277Z,4.35
2022-08-02T13:41:04.392Z,4.82
2022-08-02T13:43:52.818Z,6.45
2022-08-02T13:46:28.968Z,5.15
2022-08-02T13:48:57.156Z,4.90
2022-08-02T13:51:24.023Z,6.82
2022-08-02T13:53:50.837Z,4.22
2022-08-02T13:56:17.821Z,3.85
2022-08-02T13:58:44.694Z,3.55
2022-08-02T14:01:11.684Z,5.13
2022-08-02T14:04:07.329Z,5.10
2022-08-02T14:06:25.716Z,4.78
2022-08-02T14:08:53.080Z,5.38
2022-08-02T14:11:19.974Z,7.20
2022-08-02T14:13:46.746Z,5.95
2022-08-02T14:16:13.611Z,9.93
2022-08-02T14:18:40.469Z,9.68
2022-08-02T14:21:07.249Z,9.55
2022-08-02T14:23:50.358Z,8.73
2022-08-02T14:26:26.937Z,9.52
2022-08-02T14:28:55.566Z,9.40
2022-08-02T14:31:22.513Z,9.68
2022-08-02T14:33:49.381Z,8.90
2022-08-02T14:36:16.182Z,8.95
2022-08-02T14:38:55.252Z,10.10
2022-08-02T14:41:22.745Z,10.77
2022-08-02T14:44:04.954Z,12.52
2022-08-02T14:46:32.931Z,10.02
2022-08-02T14:49:03.703Z,10.07
2022-08-02T14:51:34.741Z,11.95
2022-08-02T14:54:03.603Z,11.65
2022-08-02T14:56:31.849Z,11.80
2022-08-02T14:58:59.009Z,9.82
2022-08-02T15:01:26.474Z,14.07
2022-08-02T15:03:58.912Z,10.07
2022-08-02T15:06:32.111Z,10.23
2022-08-02T15:09:00.003Z,9.52
2022-08-02T15:11:26.993Z,15.15
2022-08-02T15:13:53.826Z,10.30
2022-08-02T15:16:28.940Z,10.15
2022-08-02T15:19:06.488Z,9.88
2022-08-02T15:21:52.485Z,10.00
2022-08-02T15:24:20.495Z,8.32
2022-08-02T15:26:48.407Z,11.98
2022-08-02T15:29:15.212Z,10.82
2022-08-02T15:31:42.069Z,12.00
2022-08-02T15:34:09.670Z,10.40
2022-08-02T15:36:36.475Z,11.40
2022-08-02T15:39:03.665Z,9.75
2022-08-02T15:41:30.507Z,9.25
2022-08-02T15:44:00.630Z,10.15
2022-08-02T15:46:30.831Z,8.07
2022-08-02T15:48:59.774Z,7.85
2022-08-02T15:51:27.255Z,7.95
2022-08-02T15:53:54.105Z,8.32
2022-08-02T15:56:24.000Z,11.13
2022-08-02T15:58:56.059Z,7.53
2022-08-02T16:01:32.181Z,10.00
2022-08-02T16:04:07.209Z,8.05
2022-08-02T16:06:37.367Z,10.13
2022-08-02T16:09:04.381Z,7.10
2022-08-02T16:11:31.246Z,6.97
2022-08-02T16:13:59.112Z,8.05
2022-08-02T16:16:29.301Z,7.50
2022-08-02T16:18:57.280Z,6.80
2022-08-02T16:21:24.853Z,6.53
2022-08-02T16:23:59.592Z,6.60
2022-08-02T16:26:31.512Z,6.63
2022-08-02T16:28:59.421Z,6.47
2022-08-02T16:31:26.375Z,8.48
2022-08-02T16:33:56.171Z,9.65
2022-08-02T16:36:25.869Z,7.85
2022-08-02T16:38:54.379Z,8.07
2022-08-02T16:41:22.131Z,8.70
2022-08-02T16:43:49.411Z,10.38
2022-08-02T16:46:16.494Z,9.02
2022-08-02T16:48:51.185Z,11.07
2022-08-02T16:51:19.247Z,10.73
2022-08-02T16:54:00.213Z,8.70
2022-08-02T16:56:30.966Z,13.07
2022-08-02T16:58:59.752Z,9.27
2022-08-02T17:02:10.839Z,9.57
2022-08-02T17:04:16.006Z,10.45
2022-08-02T17:06:51.664Z,8.15
2022-08-02T17:10:01.842Z,9.23
2022-08-02T17:12:09.081Z,9.02
2022-08-02T17:14:54.593Z,9.60
2022-08-02T17:17:22.562Z,9.07
2022-08-02T17:20:01.885Z,11.07
2022-08-02T17:22:29.007Z,9.75
2022-08-02T17:24:56.222Z,11.23
2022-08-02T17:27:23.058Z,9.57
2022-08-02T17:29:49.902Z,10.32
2022-08-02T17:32:18.637Z,10.77
2022-08-02T17:34:48.818Z,11.30
2022-08-02T17:37:23.617Z,11.75
2022-08-02T17:39:51.879Z,12.98
2022-08-02T17:42:23.156Z,11.48
2022-08-02T17:44:52.063Z,14.13
2022-08-02T17:47:19.468Z,14.00
2022-08-02T17:49:48.396Z,13.32
2022-08-02T17:52:51.473Z,15.25
2022-08-02T17:55:04.844Z,10.27
2022-08-02T17:57:57.045Z,10.70
2022-08-02T18:00:18.914Z,12.27
2022-08-02T18:05:39.040Z,15.05
2022-08-02T18:08:08.803Z,13.85
2022-08-02T18:10:35.651Z,13.18
2022-08-02T18:13:03.820Z,13.85
2022-08-02T18:15:32.561Z,15.02
2022-08-02T18:18:00.656Z,11.55
2022-08-02T18:20:27.431Z,13.02
2022-08-02T18:22:58.500Z,12.13
2022-08-02T18:25:36.297Z,11.38
2022-08-02T18:28:05.295Z,13.07
2022-08-02T18:30:34.061Z,12.60
2022-08-02T18:33:57.333Z,14.00
2022-08-02T18:35:48.315Z,11.88
2022-08-02T18:38:15.606Z,12.77
2022-08-02T18:40:42.937Z,13.07
2022-08-02T18:43:17.647Z,13.13
2022-08-02T18:46:05.559Z,17.85
2022-08-02T18:48:31.651Z,11.73
2022-08-02T18:50:58.488Z,15.00
2022-08-02T18:53:39.163Z,13.18
2022-08-02T18:56:20.130Z,13.40
2022-08-02T18:58:52.923Z,13.73
2022-08-02T19:01:21.786Z,15.60
2022-08-02T19:03:58.783Z,15.18
2022-08-02T19:06:28.865Z,13.85
2022-08-02T19:09:05.701Z,14.38
2022-08-02T19:14:27.810Z,13.27
2022-08-02T19:16:59.581Z,15.23
2022-08-02T19:19:28.856Z,18.02
2022-08-02T19:22:17.711Z,16.58
2022-08-02T19:24:46.182Z,17.30
2022-08-02T19:27:20.701Z,16.45
2022-08-02T19:29:53.535Z,19.52
2022-08-02T19:32:41.830Z,22.27
2022-08-02T19:35:19.686Z,19.67
2022-08-02T19:38:05.278Z,17.85
2022-08-02T19:40:32.224Z,19.52
2022-08-02T19:44:24.504Z,19.38
2022-08-02T19:45:50.644Z,23.67
2022-08-02T19:48:24.255Z,23.23
2022-08-02T19:50:56.773Z,23.30
2022-08-02T19:53:28.925Z,23.83
2022-08-02T19:56:13.451Z,21.83
2022-08-02T19:58:51.234Z,23.67
2022-08-02T20:01:21.907Z,20.73
2022-08-02T20:03:53.053Z,23.20
2022-08-02T20:06:28.542Z,26.23
2022-08-02T20:08:59.317Z,22.50
2022-08-02T20:11:29.208Z,24.50
2022-08-02T20:14:03.405Z,22.40
2022-08-02T20:16:33.049Z,24.73
2022-08-02T20:19:01.249Z,24.15
2022-08-02T20:21:35.666Z,20.70
2022-08-02T20:24:07.250Z,24.65
2022-08-02T20:26:35.196Z,20.90
2022-08-02T20:29:04.387Z,23.13
2022-08-02T20:31:31.369Z,19.70
2022-08-02T20:33:58.170Z,19.25
2022-08-02T20:36:26.699Z,24.27
2022-08-02T20:38:54.529Z,18.23
2022-08-02T20:41:22.932Z,18.88
2022-08-02T20:43:50.333Z,21.42
2022-08-02T20:46:17.466Z,19.33
2022-08-02T20:48:45.079Z,17.05
2022-08-02T20:51:13.977Z,17.02
2022-08-02T20:53:54.734Z,16.13
2022-08-02T20:56:22.016Z,20.27
2022-08-02T20:58:52.358Z,18.20
2022-08-02T21:01:21.177Z,16.50
2022-08-02T21:03:58.728Z,16.77
2022-08-02T21:06:29.817Z,15.18
2022-08-02T21:08:57.202Z,15.50
2022-08-02T21:11:33.709Z,17.17
2022-08-02T21:14:06.327Z,15.25
2022-08-02T21:16:35.030Z,15.75
2022-08-02T21:19:02.142Z,16.58
2022-08-02T21:21:29.745Z,17.75
2022-08-02T21:23:57.383Z,15.88
2022-08-02T21:26:28.390Z,12.60
2022-08-02T21:28:58.183Z,13.90
2022-08-02T21:31:30.057Z,13.65
2022-08-02T21:34:00.508Z,14.65
2022-08-02T21:36:33.263Z,17.08
2022-08-02T21:39:04.924Z,15.15
2022-08-02T21:41:38.862Z,13.32
2022-08-02T21:44:17.130Z,12.63
2022-08-02T21:46:45.603Z,15.75
2022-08-02T21:49:14.269Z,14.55
2022-08-02T21:51:42.979Z,12.27
2022-08-02T21:54:18.847Z,11.50
2022-08-02T21:56:48.201Z,13.40
2022-08-02T21:59:16.482Z,13.85
2022-08-02T22:01:52.659Z,12.35
2022-08-02T22:04:21.553Z,13.10
2022-08-02T22:06:49.319Z,12.77
2022-08-02T22:14:55.118Z,10.05
2022-08-02T22:17:50.570Z,10.80
2022-08-02T22:20:14.148Z,14.10
2022-08-02T22:22:42.375Z,9.55
2022-08-02T22:25:10.224Z,11.40
2022-08-02T22:28:34.773Z,9.70
2022-08-02T22:30:41.633Z,10.07
2022-08-02T22:33:33.111Z,10.63
2022-08-02T22:36:01.179Z,11.85
2022-08-02T22:38:28.660Z,12.40
2022-08-02T22:40:55.601Z,12.98
2022-08-02T22:43:23.091Z,11.05
2022-08-02T22:45:50.874Z,10.73
2022-08-02T22:48:18.040Z,11.43
2022-08-02T22:50:44.816Z,12.45
2022-08-02T22:53:12.291Z,14.10
2022-08-02T22:55:41.834Z,12.10
2022-08-02T22:58:09.589Z,13.80
2022-08-02T22:58:42.979Z,13.63
2022-08-02T22:58:57.183Z,14.25
2022-08-02T22:59:10.806Z,12.73
2022-08-02T22:59:12.191Z,10.95
2022-08-02T23:00:36.441Z,11.82
2022-08-02T23:03:06.858Z,15.45
2022-08-02T23:05:34.389Z,13.25
2022-08-02T23:08:01.493Z,13.35
2022-08-02T23:10:28.399Z,14.07
2022-08-02T23:12:59.001Z,12.38
2022-08-02T23:15:48.566Z,13.20
2022-08-02T23:18:33.922Z,15.77
2022-08-02T23:21:00.733Z,11.30
2022-08-02T23:23:27.497Z,15.32
2022-08-02T23:25:54.288Z,13.98
2022-08-02T23:28:21.039Z,12.85
2022-08-02T23:30:47.858Z,12.07
2022-08-02T23:33:14.864Z,13.52
2022-08-02T23:35:41.681Z,12.35
2022-08-02T23:38:08.608Z,12.60
2022-08-02T23:40:40.453Z,14.32
2022-08-02T23:43:13.995Z,15.23
2022-08-02T23:45:48.570Z,11.95
2022-08-02T23:48:15.487Z,13.30
2022-08-02T23:50:42.213Z,12.32
2022-08-02T23:53:09.042Z,11.98
2022-08-02T23:55:35.824Z,11.60
2022-08-02T23:58:02.577Z,11.93
